Anderson Acres, Nevada
Current Conditions -  °F | °C
As of 7:35 PM on Sunday 21 Dec 2014 (Local Time) from KRTS Reporting Station
Overcast Overcast  
Wind Chill: 50°   Ceiling: 4800
Heat Index: 50°   Visibility: 10mi
Dew Point: 39°   Wind: 5mph
Humidity: 66%   Direction: 260°W
Pressure: 30.29"   Gusts: NA
Location:  39.7378°N, 119.889°W
Report Text: KRTS 220335Z AUTO 26004KT 10SM SCT038 OVC048 10/04 A3029 RMK AO2
Loading
Personal Weather Stations






























Interactive Weather Map New forecast layout! Learn more

10-Day Weather Forecast

Advertisements
Track Severe Weather on mobile